CLMWILLIAM R FAIRCHILD INTL
METARs for airports near CLM, sorted by distance:
N 0 nm 291' KCLM 171653Z 29010G18KT 10SM CLR 15/10 A3002
E 3 nm 13' KNOW 171735Z 30007KT 10SM CLR 14/11 A3003
NE 30 nm 112' KFHR 171741Z 13005KT 10SM SCT028 BKN039 OVC065 16/09 A3002
N 31 nm 64' CYYJ 171700Z 35004KT 230V010 30SM SCT035 BKN055 16/07 A3000
NE 36 nm 47' KNUW 171729Z 24004KT 10SM FEW015 SCT025 BKN035 11/11 A3003
NE 42 nm 34' KORS 171735Z 00000KT 10SM FEW047 BKN055 OVC065 14/10 A3001
W 44 nm 194' KUIL 171653Z 31009KT 10SM SCT020 BKN024 OVC033 14/10 A3006
NE 47 nm 145' KBVS 171735Z 00000KT 10SM BKN006 OVC010 12/12 A3003
SE 48 nm 444' KPWT 171656Z 21004KT 10SM SCT013 A3004
E 50 nm 606' KPAE 171653Z 22005KT 10SM BKN006 BKN014 OVC027 12/09 A3004
E 53 nm 141' KAWO 171735Z 16006KT 6SM -RA BR SCT008 OVC011 11/09 A3005
S 55 nm 272' KSHN 171700Z VRB04KT 10SM BKN022 BKN027 BKN110 15/09 A3000
NE 55 nm 171' KBLI 171726Z 16006KT 10SM SCT007 BKN017 OVC029 12/11 A3001
N 58 nm 92' CYCD 171700Z 02007KT 350V060 20SM BKN032 BKN100 15/08 A3000
SE 59 nm 21' KBFI 171700Z 20009G16KT 10SM SCT020 OVC055 13/08 A3004
SE 62 nm 432' KSEA 171710Z 20007KT 10SM BKN016 OVC050 12/07 A3004
SE 63 nm 294' KTIW 171653Z 18004KT 10SM OVC019 12/09 A3004
SE 64 nm 32' KRNT 171653Z 19008KT 10SM -RA BKN021 OVC060 13/08 A3004
N 65 nm 14' CYVR 171741Z 09004KT 8SM SCT006 BKN018 OVC023 13/12 A3001
S 71 nm 17' KHQM 171720Z 30009KT 10SM FEW018 OVC031 13/08 A3008
SE 72 nm 322' KTCM 171655Z 20007KT 10SM OVC020 14/09 A3003
SE 72 nm 301' KGRF 171655Z 19007KT 10SM OVC021 14/09 A3001
S 73 nm 207' KOLM 171654Z 24006KT 10SM FEW019 SCT025 OVC033 14/09 A3005
SE 78 nm 537' KPLU 171735Z 00000KT 10SM BKN021 OVC027 13/09 A3005
S 89 nm 177' KCLS 171735Z VRB05KT 9SM FEW019 SCT029 BKN034 13/12 A3007
TAFs for airports near CLM, sorted by distance:
N 0 nm 291' KCLM KCLM 171725Z 1718/1818 29010G18KT P6SM SCT070
  FM172100 31015G24KT P6SM SCT050
  FM180900 27006KT P6SM BKN050
NE 36 nm 47' KNUW TAF KNUW 1715/1815 22008KT 9999 VCSH FEW015 BKN025 BKN035 QNH2996INS
  TEMPO 1715/1719 VRB06KT 8000 -SHRA BR SCT003 BKN010 OVC020
  FM172000 VRB06KT 9999 VCSH FEW015 SCT025 BKN040 BKN150 QNH3000INS
  FM180000 21010G15KT 9999 FEW030 BKN060 BKN150 BKN200 QNH3002INS
  FM181000 23009KT 9999 FEW020 SCT030 SCT200 QNH3002INS TX15/1722Z TN08/1812Z FS30028
SE 48 nm 444' KPWT TAF KPWT 171725Z 1718/1818 21004KT P6SM SCT015 SCT050
  FM172000 21009KT P6SM FEW030 SCT050
  FM180400 21006KT P6SM OVC030
  FM180900 VRB03KT P6SM OVC020
  FM181200 00000KT P6SM OVC007
E 50 nm 606' KPAE KPAE 171725Z 1718/1818 22005KT P6SM VCSH BKN006 BKN015 OVC030
  FM172100 33006KT P6SM BKN030 OVC050
  FM180000 30005KT P6SM SCT030 OVC050
  FM180600 VRB05KT P6SM SCT020 OVC040
  FM181200 19003KT P6SM SCT015 OVC025
NE 55 nm 171' KBLI KBLI 171725Z 1718/1818 18005KT P6SM SCT007 OVC020
  FM172000 17010G18KT P6SM SCT025 OVC050
  FM180300 17006KT P6SM OVC050
  FM181500 17007KT P6SM SCT025 OVC050
SE 59 nm 21' KBFI KBFI 171725Z 1718/1818 20009KT P6SM SCT020 OVC060
  FM172100 22010KT P6SM BKN060
  FM180400 VRB03KT P6SM OVC060
  FM181200 16003KT P6SM OVC030
  FM181700 25003KT P6SM SCT030 BKN050
SE 62 nm 432' KSEA KSEA 171725Z 1718/1824 20007KT P6SM VCSH BKN015 OVC050
  FM172000 22010KT P6SM BKN040
  FM180400 20008KT P6SM OVC040
  FM181200 18004KT P6SM OVC025
  FM181800 27005KT P6SM SCT025 BKN040
S 71 nm 17' KHQM KHQM 171725Z 1718/1818 29012G20KT P6SM FEW020 OVC030
  FM172100 28015G24KT P6SM SCT025 OVC035
  FM180600 27007KT P6SM OVC025
  FM181200 30003KT P6SM OVC015
SE 72 nm 322' KTCM TAF KTCM 171300Z 1713/1819 19006KT 9999 OVC050 620606 QNH3000INS
  TEMPO 1713/1715 BKN015
  BECMG 1716/1717 21006KT 9999 BKN025 OVC050 620601 QNH3001INS
  BECMG 1720/1721 24010G15KT 9999 VCSH BKN040 610603 QNH3001INS
  BECMG 1723/1724 24010G15KT 9999 NSW BKN050 620603 QNH3001INS
  TEMPO 1800/1803 24012G20KT
  BECMG 1804/1805 22010KT 9999 BKN020 620603 QNH3004INS TX18/1721Z TN09/1809Z
SE 72 nm 301' KGRF TAF KGRF 171300Z 1713/1819 13006KT 8000 BR SCT008 BKN012 OVC090 QNH2997INS
  BECMG 1715/1716 22006KT 9999 NSW BKN020 QNH2999INS
  BECMG 1718/1719 24009KT 9999 BKN030 QNH2999INS
  TEMPO 1722/1804 25012G20KT
  BECMG 1805/1806 13006KT 9999 BKN015 OVC045 QNH3003INS
  BECMG 1816/1817 24006KT 9999 OVC020 QNH3006INS TX19/1722Z TN08/1713Z
S 73 nm 207' KOLM TAF KOLM 171725Z 1718/1818 24006KT P6SM SCT025 OVC035
  FM171900 25011G18KT P6SM SCT030 OVC050
  FM180300 25006KT P6SM BKN050
  FM180700 VRB04KT P6SM OVC030
  FM181200 VRB02KT P6SM BKN025

Shortcut to this page: http://wxbay.com.

Data may contain errors.